Time;durP1;ratioP1;P1;durP2;ratioP2;P2;SDS_P1;SDS_P2;PMS_P1;PMS_P2;Temp;Humidity;BMP_temperature;BMP_pressure;BME280_temperature;BME280_humidity;BME280_pressure;Samples;Min_cycle;Max_cycle;Signal;HPM_P1;HPM_P2
2023/03/10 00:00:39;;;;;;;10.60;10.10;;;10.50;99.90;;;;;;5086750;28;20480;-70
2023/03/10 00:03:06;;;;;;;10.30;9.90;;;10.60;99.90;;;;;;5089049;28;20470;-70
2023/03/10 00:05:34;;;;;;;11.37;10.40;;;10.60;99.90;;;;;;5090837;28;20488;-70
2023/03/10 00:08:01;;;;;;;10.50;10.00;;;10.60;99.90;;;;;;5088381;28;20458;-70
2023/03/10 00:10:28;;;;;;;11.27;10.13;;;10.60;99.90;;;;;;5096738;28;21038;-70
2023/03/10 00:12:55;;;;;;;9.93;9.37;;;10.60;99.90;;;;;;5088675;28;20948;-69
2023/03/10 00:15:22;;;;;;;10.40;9.80;;;10.60;99.90;;;;;;5087919;28;20507;-70
2023/03/10 00:17:51;;;;;;;10.50;10.00;;;10.60;99.90;;;;;;5080306;28;20471;-70
2023/03/10 00:20:18;;;;;;;10.90;10.30;;;10.70;99.90;;;;;;5093203;28;20481;-70
2023/03/10 00:22:46;;;;;;;10.17;9.47;;;10.70;99.90;;;;;;5102604;28;21371;-70
2023/03/10 00:25:15;;;;;;;9.40;9.00;;;10.70;99.90;;;;;;5097188;28;20496;-71
2023/03/10 00:27:42;;;;;;;17.70;9.20;;;10.60;99.90;;;;;;5093779;28;20903;-71
2023/03/10 00:30:10;;;;;;;9.13;8.70;;;10.50;99.90;;;;;;5097336;28;20454;-71
2023/03/10 00:32:37;;;;;;;17.77;9.50;;;10.50;99.90;;;;;;5089042;28;20446;-70
2023/03/10 00:35:05;;;;;;;8.90;8.10;;;10.50;99.90;;;;;;5096028;28;20469;-70
2023/03/10 00:37:32;;;;;;;10.87;7.93;;;10.50;99.90;;;;;;5099027;28;20494;-71
2023/03/10 00:40:00;;;;;;;9.10;8.27;;;10.50;99.90;;;;;;5092784;28;20771;-70
2023/03/10 00:42:27;;;;;;;9.40;7.80;;;10.50;99.90;;;;;;5096495;28;20489;-70
2023/03/10 00:44:54;;;;;;;7.87;7.20;;;10.50;99.90;;;;;;5090616;28;20482;-70
2023/03/10 00:47:21;;;;;;;8.10;7.70;;;10.50;99.90;;;;;;5093407;28;20457;-70
2023/03/10 00:49:48;;;;;;;8.80;8.07;;;10.50;99.90;;;;;;5089187;28;20462;-70
2023/03/10 00:52:15;;;;;;;8.87;8.30;;;10.50;99.90;;;;;;5099378;28;20878;-71
2023/03/10 00:54:42;;;;;;;8.00;7.60;;;10.50;99.90;;;;;;5097176;28;21052;-71
2023/03/10 00:57:10;;;;;;;8.00;7.50;;;10.50;99.90;;;;;;5092452;28;20526;-71
2023/03/10 00:59:37;;;;;;;8.20;7.70;;;10.50;99.90;;;;;;5090340;28;20562;-71
2023/03/10 01:02:05;;;;;;;7.73;7.43;;;10.50;99.90;;;;;;5087466;28;20495;-70
2023/03/10 01:04:31;;;;;;;8.00;7.60;;;10.40;99.90;;;;;;5092138;28;20488;-71
2023/03/10 01:06:58;;;;;;;7.67;7.23;;;10.40;99.90;;;;;;5098421;28;20519;-70
2023/03/10 01:09:25;;;;;;;8.90;8.20;;;10.30;99.90;;;;;;5097436;28;20453;-71
2023/03/10 01:11:53;;;;;;;7.17;6.77;;;10.30;99.90;;;;;;5094372;28;20468;-71
2023/03/10 01:14:21;;;;;;;16.83;8.00;;;10.30;99.90;;;;;;5090324;28;20525;-71
2023/03/10 01:16:48;;;;;;;7.60;6.90;;;10.20;99.90;;;;;;5091709;28;20457;-71
2023/03/10 01:19:17;;;;;;;7.17;6.87;;;10.20;99.90;;;;;;5089497;28;20485;-71
2023/03/10 01:21:43;;;;;;;8.27;7.77;;;10.20;99.90;;;;;;5100638;28;20919;-73
2023/03/10 01:24:15;;;;;;;8.47;8.00;;;10.10;99.90;;;;;;5096109;28;20853;-74
2023/03/10 01:26:42;;;;;;;9.30;8.50;;;10.20;99.90;;;;;;5093684;28;20522;-72
2023/03/10 01:29:08;;;;;;;22.83;7.97;;;10.20;99.90;;;;;;5088007;28;20990;-74
2023/03/10 01:31:37;;;;;;;7.70;7.30;;;10.10;99.90;;;;;;5094178;28;20851;-74
2023/03/10 01:34:04;;;;;;;21.13;7.97;;;10.20;99.90;;;;;;5093449;27;20469;-73
2023/03/10 01:36:30;;;;;;;7.10;6.80;;;10.10;99.90;;;;;;5095083;28;20838;-71
2023/03/10 01:38:59;;;;;;;7.03;6.17;;;10.10;99.90;;;;;;5089845;28;20776;-74
2023/03/10 01:41:26;;;;;;;17.00;7.80;;;10.00;99.90;;;;;;5088198;28;20465;-72
2023/03/10 01:43:53;;;;;;;6.83;6.43;;;10.00;99.90;;;;;;5092200;28;20510;-71
2023/03/10 01:46:39;;;;;;;30.63;7.80;;;9.90;99.90;;;;;;5095862;28;20490;-72
2023/03/10 01:49:11;;;;;;;5.73;5.53;;;10.00;99.90;;;;;;5094737;28;20808;-71
2023/03/10 01:51:41;;;;;;;9.90;6.63;;;9.90;99.90;;;;;;5094101;28;20542;-71
2023/03/10 01:54:13;;;;;;;5.87;5.47;;;9.90;99.90;;;;;;5094207;28;20551;-72
2023/03/10 01:56:41;;;;;;;6.00;5.40;;;9.90;99.90;;;;;;5089169;28;20461;-71
2023/03/10 01:59:09;;;;;;;6.03;5.40;;;9.80;99.90;;;;;;5092648;28;20457;-73
2023/03/10 02:01:37;;;;;;;5.33;4.93;;;9.80;99.90;;;;;;5096442;28;21039;-75
2023/03/10 02:04:08;;;;;;;16.30;5.70;;;9.80;99.90;;;;;;5092139;28;20469;-73
2023/03/10 02:06:37;;;;;;;13.53;6.37;;;9.70;99.90;;;;;;5088108;28;20564;-74
2023/03/10 02:09:05;;;;;;;5.60;5.40;;;9.80;99.90;;;;;;5097104;28;20458;-73
2023/03/10 02:11:32;;;;;;;6.40;5.90;;;9.80;99.90;;;;;;5094564;28;20930;-71
2023/03/10 02:14:03;;;;;;;5.97;5.40;;;9.70;99.90;;;;;;5093534;28;20486;-72
2023/03/10 02:16:30;;;;;;;6.00;5.70;;;9.80;99.90;;;;;;5096692;28;20938;-73
2023/03/10 02:18:59;;;;;;;5.50;5.30;;;9.80;99.90;;;;;;5099047;28;21604;-70
2023/03/10 02:21:39;;;;;;;5.70;5.40;;;9.80;99.90;;;;;;5096809;28;20531;-71
2023/03/10 02:24:11;;;;;;;5.57;5.13;;;9.80;99.90;;;;;;5087827;28;20836;-71
2023/03/10 02:26:47;;;;;;;8.60;5.90;;;9.80;99.90;;;;;;5089627;28;20466;-70
2023/03/10 02:29:22;;;;;;;6.10;5.70;;;9.80;99.90;;;;;;5086404;28;20935;-71
2023/03/10 02:31:50;;;;;;;6.67;6.27;;;9.80;99.90;;;;;;5086127;28;20457;-70
2023/03/10 02:34:18;;;;;;;6.77;6.20;;;9.80;99.90;;;;;;5094537;28;20458;-72
2023/03/10 02:36:44;;;;;;;7.60;6.97;;;9.80;99.90;;;;;;5095905;28;20450;-70
2023/03/10 02:39:11;;;;;;;8.30;6.43;;;9.80;99.90;;;;;;5085870;28;20462;-72
2023/03/10 02:41:40;;;;;;;7.00;6.60;;;9.90;99.90;;;;;;5097570;28;20461;-72
2023/03/10 02:44:11;;;;;;;7.37;6.87;;;9.80;99.90;;;;;;5093776;28;20930;-72
2023/03/10 02:46:40;;;;;;;8.90;8.43;;;9.70;99.90;;;;;;5089971;28;20858;-70
2023/03/10 02:49:09;;;;;;;9.00;8.50;;;9.80;99.90;;;;;;5091934;28;20458;-73
2023/03/10 02:51:39;;;;;;;9.70;9.20;;;9.80;99.90;;;;;;5088189;28;20492;-70
2023/03/10 02:54:08;;;;;;;9.77;8.70;;;9.80;99.90;;;;;;5090880;28;20465;-72
2023/03/10 02:56:36;;;;;;;9.33;8.53;;;9.90;99.90;;;;;;5094749;28;20454;-73
2023/03/10 02:59:03;;;;;;;8.73;8.13;;;10.00;99.90;;;;;;5092632;28;20466;-73
2023/03/10 03:01:30;;;;;;;10.10;9.50;;;10.00;99.90;;;;;;5091286;28;20469;-73
2023/03/10 03:03:58;;;;;;;9.60;8.73;;;10.00;99.90;;;;;;5098486;28;20492;-73
2023/03/10 03:06:25;;;;;;;9.90;8.40;;;10.00;99.90;;;;;;5088999;28;20535;-73
2023/03/10 03:08:53;;;;;;;8.40;7.87;;;10.00;99.90;;;;;;5088831;28;20508;-72
2023/03/10 03:11:20;;;;;;;8.60;8.00;;;10.00;99.90;;;;;;5096801;28;20457;-73
2023/03/10 03:13:47;;;;;;;8.37;7.87;;;10.00;99.90;;;;;;5094407;28;20826;-70
2023/03/10 03:16:14;;;;;;;8.93;8.10;;;10.00;99.90;;;;;;5087844;28;20458;-73
2023/03/10 03:18:41;;;;;;;9.07;8.57;;;10.00;99.90;;;;;;5096573;28;20461;-73
2023/03/10 03:21:11;;;;;;;8.77;8.37;;;10.00;99.90;;;;;;5090422;28;20539;-71
2023/03/10 03:23:39;;;;;;;8.77;8.10;;;10.00;99.90;;;;;;5095704;28;20463;-73
2023/03/10 03:26:12;;;;;;;9.00;8.50;;;9.90;99.90;;;;;;5095113;28;20476;-72
2023/03/10 03:28:39;;;;;;;10.57;9.83;;;9.90;99.90;;;;;;5092387;28;20461;-72
2023/03/10 03:31:06;;;;;;;9.43;8.63;;;9.90;99.90;;;;;;5093925;28;20468;-74
2023/03/10 03:33:33;;;;;;;9.03;8.43;;;9.90;99.90;;;;;;5088848;28;20697;-72
2023/03/10 03:36:01;;;;;;;9.40;8.70;;;9.90;99.90;;;;;;5091581;28;20463;-70
2023/03/10 03:38:31;;;;;;;9.47;8.40;;;9.80;99.90;;;;;;5084393;28;20460;-70
2023/03/10 03:40:59;;;;;;;7.67;7.37;;;9.90;99.90;;;;;;5084596;28;20541;-70
2023/03/10 03:43:26;;;;;;;8.43;7.83;;;9.80;99.90;;;;;;5094243;28;20516;-71
2023/03/10 03:45:53;;;;;;;8.77;8.00;;;9.80;99.90;;;;;;5097437;28;20483;-70
2023/03/10 03:48:19;;;;;;;9.60;8.67;;;9.80;99.90;;;;;;5092162;28;20457;-73
2023/03/10 03:50:47;;;;;;;12.30;8.30;;;9.80;99.90;;;;;;5089957;28;20511;-75
2023/03/10 03:53:14;;;;;;;8.73;8.03;;;9.80;99.90;;;;;;5096708;28;20469;-71
2023/03/10 03:55:42;;;;;;;8.20;7.57;;;9.80;99.90;;;;;;5093972;28;20462;-71
2023/03/10 03:58:09;;;;;;;8.50;7.90;;;9.80;99.90;;;;;;5093969;28;20468;-70
2023/03/10 04:00:38;;;;;;;9.20;8.43;;;9.70;99.90;;;;;;5094405;28;20457;-71
2023/03/10 04:03:06;;;;;;;9.93;8.80;;;9.70;99.90;;;;;;5098300;28;20469;-69
2023/03/10 04:05:33;;;;;;;11.80;8.53;;;9.70;99.90;;;;;;5091359;28;20486;-72
2023/03/10 04:08:00;;;;;;;9.30;8.27;;;9.70;99.90;;;;;;5098268;28;20492;-73
2023/03/10 04:10:27;;;;;;;9.20;8.40;;;9.70;99.90;;;;;;5095984;28;20466;-69
2023/03/10 04:12:56;;;;;;;16.73;8.80;;;9.70;99.90;;;;;;5090358;28;20478;-70
2023/03/10 04:15:22;;;;;;;9.70;8.90;;;9.70;99.90;;;;;;5093992;28;20489;-73
2023/03/10 04:17:49;;;;;;;14.10;9.80;;;9.70;99.90;;;;;;5100310;28;20472;-70
2023/03/10 04:20:17;;;;;;;12.63;8.83;;;9.70;99.90;;;;;;5098139;28;20485;-73
2023/03/10 04:22:44;;;;;;;9.53;8.80;;;9.70;99.90;;;;;;5095745;28;20457;-70
2023/03/10 04:25:11;;;;;;;14.13;9.10;;;9.70;99.90;;;;;;5094097;28;20477;-73
2023/03/10 04:27:39;;;;;;;9.43;8.77;;;9.70;99.90;;;;;;5088361;28;20473;-73
2023/03/10 04:30:12;;;;;;;13.83;9.83;;;9.70;99.90;;;;;;5094779;28;20485;-72
2023/03/10 04:32:38;;;;;;;11.57;9.80;;;9.70;99.90;;;;;;5086253;28;20454;-71
2023/03/10 04:35:07;;;;;;;13.80;9.07;;;9.70;99.90;;;;;;5091717;28;20469;-70
2023/03/10 04:37:33;;;;;;;13.93;9.47;;;9.60;99.90;;;;;;5093533;28;21004;-71
2023/03/10 04:40:07;;;;;;;10.10;9.23;;;9.60;99.90;;;;;;5099468;28;20494;-70
2023/03/10 04:42:34;;;;;;;14.67;10.17;;;9.60;99.90;;;;;;5092177;28;20501;-71
2023/03/10 04:45:01;;;;;;;16.53;10.30;;;9.70;99.90;;;;;;5094833;28;20458;-71
2023/03/10 04:47:28;;;;;;;16.73;10.07;;;9.60;99.90;;;;;;5101075;28;20457;-69
2023/03/10 04:49:56;;;;;;;20.77;10.70;;;9.70;99.90;;;;;;5097347;28;20457;-73
2023/03/10 04:52:22;;;;;;;18.73;10.50;;;9.60;99.90;;;;;;5094963;28;20505;-70
2023/03/10 04:54:49;;;;;;;16.20;10.37;;;9.70;99.90;;;;;;5092342;28;20469;-72
2023/03/10 04:57:16;;;;;;;11.50;10.17;;;9.60;99.90;;;;;;5088995;28;20514;-70
2023/03/10 04:59:43;;;;;;;10.37;9.53;;;9.70;99.90;;;;;;5096949;28;20473;-71
2023/03/10 05:02:10;;;;;;;11.80;10.80;;;9.70;99.90;;;;;;5091956;28;20537;-71
2023/03/10 05:04:39;;;;;;;12.03;10.80;;;9.70;99.90;;;;;;5099454;28;20510;-72
2023/03/10 05:07:06;;;;;;;12.77;10.53;;;9.70;99.90;;;;;;5089244;28;20485;-69
2023/03/10 05:09:35;;;;;;;16.27;11.10;;;9.70;99.90;;;;;;5087152;28;20465;-70
2023/03/10 05:12:03;;;;;;;16.53;11.60;;;9.70;99.90;;;;;;5092332;28;20549;-69
2023/03/10 05:14:30;;;;;;;12.37;11.20;;;9.70;99.90;;;;;;5092220;28;20947;-70
2023/03/10 05:16:56;;;;;;;14.90;10.80;;;9.70;99.90;;;;;;5092671;28;20877;-71
2023/03/10 05:19:23;;;;;;;11.80;10.63;;;9.70;99.90;;;;;;5089607;28;20485;-71
2023/03/10 05:21:53;;;;;;;16.83;10.90;;;9.70;99.90;;;;;;5091702;28;20473;-70
2023/03/10 05:24:20;;;;;;;32.10;13.40;;;9.70;99.90;;;;;;5091739;28;20490;-70
2023/03/10 05:26:47;;;;;;;12.97;11.73;;;9.70;99.90;;;;;;5087665;28;23094;-70
2023/03/10 05:29:14;;;;;;;16.73;11.87;;;9.70;99.90;;;;;;5089592;28;20482;-69
2023/03/10 05:31:41;;;;;;;15.17;12.17;;;9.70;99.90;;;;;;5089545;28;20459;-70
2023/03/10 05:34:08;;;;;;;15.53;11.60;;;9.70;99.90;;;;;;5085130;28;20469;-72
2023/03/10 05:36:35;;;;;;;14.03;11.77;;;9.60;99.90;;;;;;5092974;28;20458;-72
2023/03/10 05:39:05;;;;;;;17.47;12.70;;;9.60;99.90;;;;;;5091558;28;20537;-70
2023/03/10 05:41:32;;;;;;;15.20;12.47;;;9.60;99.90;;;;;;5093018;28;20707;-72
2023/03/10 05:43:59;;;;;;;14.53;12.67;;;9.60;99.90;;;;;;5088287;28;21001;-72
2023/03/10 05:46:26;;;;;;;13.60;12.60;;;9.60;99.90;;;;;;5091491;28;20496;-71
2023/03/10 05:48:53;;;;;;;13.53;12.43;;;9.70;99.90;;;;;;5092035;28;20514;-69
2023/03/10 05:51:20;;;;;;;13.13;11.97;;;9.80;99.90;;;;;;5090073;28;20489;-71
2023/03/10 05:53:47;;;;;;;13.37;12.20;;;9.80;99.90;;;;;;5098250;28;20472;-70
2023/03/10 05:56:17;;;;;;;12.57;11.50;;;9.80;99.90;;;;;;5089967;28;20833;-71
2023/03/10 05:58:45;;;;;;;13.00;10.97;;;9.80;99.90;;;;;;5088933;28;20515;-71
2023/03/10 06:01:12;;;;;;;12.53;10.30;;;9.80;99.90;;;;;;5090460;28;20466;-70
2023/03/10 06:03:39;;;;;;;14.10;12.60;;;9.80;99.90;;;;;;5097787;28;20457;-70
2023/03/10 06:06:07;;;;;;;13.43;10.63;;;9.80;99.90;;;;;;5090823;28;20736;-70
2023/03/10 06:08:34;;;;;;;12.80;11.90;;;9.80;99.90;;;;;;5089398;28;20890;-69
2023/03/10 06:11:01;;;;;;;16.47;12.60;;;9.80;99.90;;;;;;5086696;28;20509;-70
2023/03/10 06:13:30;;;;;;;13.43;12.23;;;9.80;99.90;;;;;;5085317;28;20518;-70
2023/03/10 06:15:59;;;;;;;13.33;11.80;;;9.70;99.90;;;;;;5094198;28;20549;-71
2023/03/10 06:18:27;;;;;;;13.63;12.53;;;9.80;99.90;;;;;;5092326;28;20963;-70
2023/03/10 06:20:54;;;;;;;13.33;12.43;;;9.80;99.90;;;;;;5092794;28;20481;-70
2023/03/10 06:23:22;;;;;;;14.30;12.87;;;9.80;99.90;;;;;;5096697;28;20469;-71
2023/03/10 06:25:56;;;;;;;13.73;12.47;;;9.70;99.90;;;;;;5094234;28;20940;-70
2023/03/10 06:28:23;;;;;;;13.50;12.30;;;9.70;99.90;;;;;;5098012;28;20563;-68
2023/03/10 06:30:55;;;;;;;13.13;12.33;;;9.70;99.90;;;;;;5089842;28;20464;-70
2023/03/10 06:33:22;;;;;;;14.43;13.30;;;9.60;99.90;;;;;;5090290;28;20797;-71
2023/03/10 06:35:49;;;;;;;15.47;14.23;;;9.50;99.90;;;;;;5089591;28;20470;-71
2023/03/10 06:38:16;;;;;;;15.10;13.80;;;9.50;99.90;;;;;;5090161;28;20460;-73
2023/03/10 06:40:43;;;;;;;15.83;13.53;;;9.50;99.90;;;;;;5092122;28;20841;-72
2023/03/10 06:43:10;;;;;;;15.10;13.77;;;9.60;99.90;;;;;;5088511;28;20491;-71
2023/03/10 06:45:36;;;;;;;15.03;13.73;;;9.60;99.90;;;;;;5090882;28;20826;-71
2023/03/10 06:48:05;;;;;;;16.67;14.77;;;9.60;99.90;;;;;;5092843;28;20481;-70
2023/03/10 06:50:31;;;;;;;14.63;13.60;;;9.60;99.90;;;;;;5088619;27;20555;-70
2023/03/10 06:52:58;;;;;;;16.93;15.40;;;9.60;99.90;;;;;;5087206;28;20815;-70
2023/03/10 06:55:26;;;;;;;15.80;14.23;;;9.70;99.90;;;;;;5090708;28;20620;-73
2023/03/10 06:57:52;;;;;;;15.23;13.90;;;9.70;99.90;;;;;;5092288;28;20457;-73
2023/03/10 07:00:20;;;;;;;14.50;13.20;;;9.80;99.90;;;;;;5095325;28;20466;-72
2023/03/10 07:02:46;;;;;;;15.10;13.77;;;9.70;99.90;;;;;;5096082;28;20875;-71
2023/03/10 07:05:15;;;;;;;15.80;14.70;;;9.80;99.90;;;;;;5091820;28;20548;-69
2023/03/10 07:07:42;;;;;;;16.33;14.80;;;9.80;99.90;;;;;;5086494;28;20486;-73
2023/03/10 07:10:10;;;;;;;15.70;14.30;;;9.80;99.90;;;;;;5090543;28;20904;-70
2023/03/10 07:12:37;;;;;;;14.83;13.50;;;9.80;99.90;;;;;;5089404;28;20977;-74
2023/03/10 07:15:04;;;;;;;15.20;13.80;;;9.80;99.90;;;;;;5092512;28;20464;-72
2023/03/10 07:17:31;;;;;;;17.57;13.87;;;9.80;99.90;;;;;;5085847;28;20445;-73
2023/03/10 07:19:58;;;;;;;14.87;13.77;;;9.90;99.90;;;;;;5086490;28;20689;-74
2023/03/10 07:22:26;;;;;;;16.13;14.70;;;9.90;99.90;;;;;;5090120;28;20457;-71
2023/03/10 07:24:54;;;;;;;14.67;13.37;;;10.00;99.90;;;;;;5099702;28;20466;-71
2023/03/10 07:27:22;;;;;;;14.90;13.80;;;10.00;99.90;;;;;;5090356;28;20485;-72
2023/03/10 07:29:49;;;;;;;17.97;14.20;;;10.10;99.90;;;;;;5086876;28;20457;-71
2023/03/10 07:32:16;;;;;;;18.03;14.60;;;10.20;99.90;;;;;;5085643;28;20473;-71
2023/03/10 07:34:43;;;;;;;16.93;15.30;;;10.20;99.90;;;;;;5089937;28;20458;-71
2023/03/10 07:37:09;;;;;;;15.00;13.80;;;10.40;99.90;;;;;;5089175;28;20462;-70
2023/03/10 07:39:38;;;;;;;16.83;13.93;;;10.30;99.90;;;;;;5090309;28;20489;-70
2023/03/10 07:42:04;;;;;;;15.13;13.47;;;10.30;99.90;;;;;;5088736;28;20834;-70
2023/03/10 07:44:31;;;;;;;14.50;13.27;;;10.40;99.90;;;;;;5088095;28;20831;-70
2023/03/10 07:46:58;;;;;;;15.57;14.00;;;10.40;99.90;;;;;;5090174;28;20490;-71
2023/03/10 07:49:25;;;;;;;14.77;13.33;;;10.40;99.90;;;;;;5087149;28;20489;-71
2023/03/10 07:51:52;;;;;;;13.67;12.30;;;10.40;99.90;;;;;;5100459;28;20491;-70
2023/03/10 07:54:18;;;;;;;12.87;11.87;;;10.30;99.90;;;;;;5093311;28;20460;-70
2023/03/10 07:56:46;;;;;;;14.43;12.20;;;10.20;99.90;;;;;;5085025;28;20468;-71
2023/03/10 07:59:13;;;;;;;13.03;11.93;;;10.30;99.90;;;;;;5091060;28;21020;-71
2023/03/10 08:01:40;;;;;;;13.07;12.17;;;10.30;99.90;;;;;;5092904;28;20517;-70
2023/03/10 08:04:07;;;;;;;12.33;11.73;;;10.30;99.90;;;;;;5094677;28;20468;-71
2023/03/10 08:06:34;;;;;;;13.27;12.37;;;10.40;99.90;;;;;;5092104;28;20975;-70
2023/03/10 08:09:02;;;;;;;13.87;12.67;;;10.50;99.90;;;;;;5092264;28;20457;-71
2023/03/10 08:11:29;;;;;;;12.10;11.40;;;10.50;99.90;;;;;;5085748;28;20465;-70
2023/03/10 08:13:57;;;;;;;12.77;11.73;;;10.60;99.90;;;;;;5088341;28;20489;-72
2023/03/10 08:16:24;;;;;;;16.63;12.10;;;10.70;99.90;;;;;;5085001;28;20473;-70
2023/03/10 08:18:53;;;;;;;12.70;10.97;;;10.70;99.90;;;;;;5083107;28;20466;-71
2023/03/10 08:21:20;;;;;;;12.00;11.07;;;10.90;99.90;;;;;;5075790;28;20482;-70
2023/03/10 08:23:47;;;;;;;11.47;10.10;;;11.00;99.90;;;;;;5083951;28;20458;-71
2023/03/10 08:26:16;;;;;;;14.00;10.63;;;11.00;99.90;;;;;;5086720;28;21046;-69
2023/03/10 08:28:43;;;;;;;11.50;10.40;;;11.10;99.90;;;;;;5092297;28;20890;-72
2023/03/10 08:31:14;;;;;;;21.57;10.50;;;11.20;99.90;;;;;;5087871;28;20556;-71
2023/03/10 08:33:41;;;;;;;11.17;10.10;;;11.30;99.90;;;;;;5091772;28;20539;-71
2023/03/10 08:36:10;;;;;;;15.13;10.60;;;11.40;99.90;;;;;;5085653;28;20525;-70
2023/03/10 08:38:37;;;;;;;15.27;9.77;;;11.30;99.90;;;;;;5080638;28;20948;-70
2023/03/10 08:41:15;;;;;;;12.03;10.67;;;11.40;99.90;;;;;;5087347;28;20461;-71
2023/03/10 08:43:43;;;;;;;19.63;12.30;;;11.40;99.90;;;;;;5090797;28;21087;-71
2023/03/10 08:46:11;;;;;;;17.17;10.00;;;11.40;99.90;;;;;;5093824;28;20457;-70
2023/03/10 08:48:39;;;;;;;14.10;9.70;;;11.40;99.90;;;;;;5085203;28;20490;-71
2023/03/10 08:51:07;;;;;;;15.07;10.67;;;11.50;99.90;;;;;;5091065;28;20550;-69
2023/03/10 08:53:35;;;;;;;9.70;8.80;;;11.70;99.90;;;;;;5089711;28;20458;-72
2023/03/10 08:56:04;;;;;;;13.93;9.23;;;11.90;99.90;;;;;;5088332;28;20473;-71
2023/03/10 08:58:31;;;;;;;19.50;11.40;;;12.00;99.90;;;;;;5085970;28;21056;-70
2023/03/10 09:00:57;;;;;;;22.80;10.93;;;12.10;99.90;;;;;;5091615;28;20846;-70
2023/03/10 09:03:26;;;;;;;16.80;11.60;;;12.00;99.90;;;;;;5093725;28;20461;-70
2023/03/10 09:05:54;;;;;;;13.40;11.30;;;11.90;99.90;;;;;;5087069;28;20464;-71
2023/03/10 09:08:21;;;;;;;18.50;11.13;;;12.00;99.90;;;;;;5091004;28;21002;-70
2023/03/10 09:10:48;;;;;;;13.03;11.70;;;11.90;99.90;;;;;;5085426;28;20489;-72
2023/03/10 09:13:15;;;;;;;18.43;11.80;;;11.90;99.90;;;;;;5092892;28;20826;-71
2023/03/10 09:15:42;;;;;;;23.07;13.40;;;11.80;99.90;;;;;;5092602;28;20464;-69
2023/03/10 09:18:10;;;;;;;17.63;12.57;;;12.00;99.90;;;;;;5094468;28;20458;-70
2023/03/10 09:20:40;;;;;;;23.43;15.30;;;12.00;99.90;;;;;;5094445;28;20534;-69
2023/03/10 09:23:08;;;;;;;13.47;12.17;;;12.20;99.90;;;;;;5089023;28;20548;-70
2023/03/10 09:25:35;;;;;;;15.93;12.83;;;12.20;99.90;;;;;;5090711;28;20839;-71
2023/03/10 09:28:02;;;;;;;16.20;13.10;;;12.30;99.90;;;;;;5090176;28;20505;-71
2023/03/10 09:30:29;;;;;;;21.73;13.57;;;12.50;99.90;;;;;;5091866;28;20457;-71
2023/03/10 09:32:57;;;;;;;13.37;12.27;;;12.50;99.90;;;;;;5084088;28;20458;-69
2023/03/10 09:35:23;;;;;;;14.70;13.10;;;12.80;99.90;;;;;;5087914;28;20545;-69
2023/03/10 09:37:51;;;;;;;14.03;12.80;;;12.80;99.90;;;;;;5085954;28;20549;-70
2023/03/10 09:40:20;;;;;;;14.33;13.03;;;12.80;99.90;;;;;;5094413;28;20485;-70
2023/03/10 09:42:49;;;;;;;14.97;12.57;;;13.00;99.90;;;;;;5092261;28;20980;-70
2023/03/10 09:45:29;;;;;;;13.67;12.43;;;13.30;99.90;;;;;;5088707;28;20458;-71
2023/03/10 09:48:10;;;;;;;14.87;13.50;;;13.80;99.90;;;;;;5089978;28;20604;-71
2023/03/10 09:50:41;;;;;;;15.60;14.00;;;14.00;99.90;;;;;;5085916;28;20577;-71
2023/03/10 09:53:26;;;;;;;15.10;13.63;;;14.10;99.90;;;;;;5085334;28;20453;-69
2023/03/10 09:55:53;;;;;;;14.70;13.67;;;14.20;99.90;;;;;;5091356;28;20457;-71
2023/03/10 09:58:30;;;;;;;15.70;14.13;;;14.00;99.90;;;;;;5086110;28;20469;-68
2023/03/10 10:00:59;;;;;;;14.17;13.03;;;14.00;99.90;;;;;;5088580;28;20986;-70
2023/03/10 10:03:32;;;;;;;16.07;14.50;;;13.80;99.90;;;;;;5094268;28;20465;-71
2023/03/10 10:06:00;;;;;;;14.03;13.07;;;13.70;99.90;;;;;;5083850;28;20462;-70
2023/03/10 10:08:41;;;;;;;15.07;13.70;;;13.80;99.90;;;;;;5086956;28;21077;-71
2023/03/10 10:11:15;;;;;;;15.97;13.80;;;13.90;99.90;;;;;;5087173;28;20462;-71
2023/03/10 10:13:42;;;;;;;16.50;14.70;;;14.00;99.90;;;;;;5089597;28;20458;-69
2023/03/10 10:16:24;;;;;;;15.57;14.30;;;14.10;99.90;;;;;;5085850;28;20844;-70
2023/03/10 10:18:57;;;;;;;15.33;14.20;;;14.20;99.90;;;;;;5095140;28;20458;-68
2023/03/10 10:21:31;;;;;;;16.00;14.43;;;14.00;99.90;;;;;;5094438;28;20985;-70
2023/03/10 10:23:59;;;;;;;14.50;13.70;;;14.00;99.90;;;;;;5088331;28;20541;-69
2023/03/10 10:26:27;;;;;;;14.83;13.80;;;13.80;99.90;;;;;;5086969;28;20466;-71
2023/03/10 10:28:55;;;;;;;15.13;14.07;;;13.70;99.90;;;;;;5087994;28;21000;-71
2023/03/10 10:31:24;;;;;;;15.03;13.97;;;13.60;99.90;;;;;;5090893;28;20464;-71
2023/03/10 10:33:59;;;;;;;15.30;13.23;;;13.40;99.90;;;;;;5087273;28;20459;-70
2023/03/10 10:36:28;;;;;;;14.67;13.87;;;13.20;99.90;;;;;;5089444;28;21098;-69
2023/03/10 10:38:56;;;;;;;17.33;15.93;;;12.90;99.90;;;;;;5085862;28;20476;-71
2023/03/10 10:41:28;;;;;;;14.60;13.60;;;13.00;99.90;;;;;;5090959;28;20985;-70
2023/03/10 10:44:06;;;;;;;12.90;11.97;;;12.90;99.90;;;;;;5092434;28;20561;-70
2023/03/10 10:46:33;;;;;;;14.80;11.60;;;12.90;99.90;;;;;;5094905;28;20453;-69
2023/03/10 10:49:06;;;;;;;12.63;11.43;;;12.90;99.90;;;;;;5091133;28;21013;-69
2023/03/10 10:51:36;;;;;;;12.10;11.20;;;12.70;99.90;;;;;;5086353;28;20458;-69
2023/03/10 10:54:05;;;;;;;12.53;11.60;;;12.70;99.90;;;;;;5088457;28;20659;-70
2023/03/10 10:56:34;;;;;;;12.33;11.40;;;12.70;99.90;;;;;;5087690;28;20454;-70
2023/03/10 10:59:04;;;;;;;12.43;11.83;;;12.60;99.90;;;;;;5085670;28;20465;-70
2023/03/10 11:01:48;;;;;;;19.50;18.10;;;12.40;99.90;;;;;;5089289;28;20549;-68
2023/03/10 11:04:14;;;;;;;26.27;19.20;;;12.30;99.90;;;;;;5090619;28;20461;-69
2023/03/10 11:06:42;;;;;;;23.50;21.80;;;12.00;99.90;;;;;;5087986;28;20453;-70
2023/03/10 11:09:13;;;;;;;22.10;20.50;;;11.70;99.90;;;;;;5088692;28;20861;-68
2023/03/10 11:11:51;;;;;;;22.60;20.73;;;11.40;99.90;;;;;;5085415;28;20539;-69
2023/03/10 11:14:31;;;;;;;19.67;18.27;;;11.10;99.90;;;;;;5085546;28;20474;-69
2023/03/10 11:17:03;;;;;;;19.90;18.50;;;10.90;99.90;;;;;;5086627;28;20964;-69
2023/03/10 11:19:35;;;;;;;19.60;17.87;;;10.70;99.90;;;;;;5087261;28;20655;-70
2023/03/10 11:22:10;;;;;;;18.33;16.97;;;10.60;99.90;;;;;;5089646;28;20470;-70
2023/03/10 11:24:45;;;;;;;19.03;16.70;;;10.50;99.90;;;;;;5089218;28;20469;-72
2023/03/10 11:27:22;;;;;;;15.97;14.97;;;10.50;99.90;;;;;;5089458;28;20463;-70
2023/03/10 11:30:07;;;;;;;15.80;15.00;;;10.40;99.90;;;;;;5087195;28;20458;-71
2023/03/10 11:32:42;;;;;;;14.77;13.97;;;10.40;99.90;;;;;;5088774;28;20526;-71
2023/03/10 11:35:18;;;;;;;13.23;12.63;;;10.40;99.90;;;;;;5086620;28;20457;-74
2023/03/10 11:37:51;;;;;;;14.20;13.50;;;10.50;99.90;;;;;;5089676;28;20461;-70
2023/03/10 11:40:23;;;;;;;14.10;13.10;;;10.40;99.90;;;;;;5087059;28;20714;-70
2023/03/10 11:43:00;;;;;;;13.87;12.90;;;10.50;99.90;;;;;;5089703;28;20888;-70
2023/03/10 11:45:31;;;;;;;14.97;14.17;;;10.50;99.90;;;;;;5093511;28;20473;-71
2023/03/10 11:48:12;;;;;;;12.80;12.10;;;10.60;99.90;;;;;;5084798;28;20476;-71
2023/03/10 11:50:44;;;;;;;13.80;12.57;;;10.50;99.90;;;;;;5088818;28;20471;-74
2023/03/10 11:53:16;;;;;;;12.73;11.93;;;10.60;99.90;;;;;;5086544;28;20560;-72
2023/03/10 11:55:44;;;;;;;13.07;12.30;;;10.60;99.90;;;;;;5086692;28;20462;-71
2023/03/10 11:58:23;;;;;;;11.50;11.00;;;10.70;99.90;;;;;;5085867;28;21653;-70
2023/03/10 12:00:52;;;;;;;11.80;11.20;;;10.70;99.90;;;;;;5086098;28;20462;-73
2023/03/10 12:03:28;;;;;;;12.00;11.30;;;10.80;99.90;;;;;;5089293;28;20892;-72
2023/03/10 12:05:59;;;;;;;11.77;11.27;;;11.00;99.90;;;;;;5091240;28;20499;-71
2023/03/10 12:08:33;;;;;;;12.27;11.77;;;11.20;99.90;;;;;;5086086;28;20486;-71
2023/03/10 12:11:02;;;;;;;14.20;13.40;;;11.30;99.90;;;;;;5085319;28;20812;-71
2023/03/10 12:13:42;;;;;;;12.60;12.00;;;11.40;99.90;;;;;;5089930;28;20521;-70
2023/03/10 12:16:16;;;;;;;13.27;12.63;;;11.40;99.90;;;;;;5093786;28;20484;-71
2023/03/10 12:18:43;;;;;;;14.90;14.10;;;11.20;99.90;;;;;;5093296;28;20876;-70
2023/03/10 12:21:16;;;;;;;15.03;14.13;;;11.10;99.90;;;;;;5088730;28;20559;-71
2023/03/10 12:23:45;;;;;;;14.77;13.47;;;11.10;99.90;;;;;;5091709;28;20871;-72
2023/03/10 12:26:12;;;;;;;13.70;13.00;;;11.00;99.90;;;;;;5096299;28;20511;-71
2023/03/10 12:28:40;;;;;;;13.93;12.97;;;11.00;99.90;;;;;;5089287;28;20488;-71
2023/03/10 12:31:09;;;;;;;12.63;12.00;;;11.00;99.90;;;;;;5091131;28;20462;-70
2023/03/10 12:33:47;;;;;;;13.60;12.80;;;11.00;99.90;;;;;;5100123;28;20556;-70
2023/03/10 12:36:19;;;;;;;11.80;11.30;;;11.10;99.90;;;;;;5093598;28;20468;-71
2023/03/10 12:38:49;;;;;;;11.70;11.17;;;11.10;99.90;;;;;;5089030;28;20461;-69
2023/03/10 12:41:43;;;;;;;12.37;11.87;;;11.00;99.90;;;;;;5091307;28;20469;-70
2023/03/10 12:44:41;;;;;;;11.93;11.40;;;11.10;99.90;;;;;;5051288;28;20470;-72
2023/03/10 12:47:38;;;;;;;12.47;11.97;;;11.00;99.90;;;;;;5050232;28;20475;-70